Time;durP1;ratioP1;P1;durP2;ratioP2;P2;SDS_P1;SDS_P2;PMS_P1;PMS_P2;Temp;Humidity;BMP_temperature;BMP_pressure;BME280_temperature;BME280_humidity;BME280_pressure;Samples;Min_cycle;Max_cycle;Signal;HPM_P1;HPM_P2
2021/07/14 00:02:02;;;;;;;18.48;14.18;;;716.80;1766.40;;;;;;5032298;28;20060;-78
2021/07/14 00:04:27;;;;;;;17.08;13.82;;;692.10;1740.80;;;;;;5033272;28;20512;-78
2021/07/14 00:06:53;;;;;;;19.05;14.23;;;692.10;1740.80;;;;;;5032013;28;20116;-78
2021/07/14 00:09:19;;;;;;;18.60;13.75;;;692.10;1766.40;;;;;;5033459;28;20030;-77
2021/07/14 00:11:53;;;;;;;18.20;14.40;;;692.10;1766.40;;;;;;5033486;28;20030;-79
2021/07/14 00:22:14;;;;;;;20.50;14.23;;;692.00;1766.40;;;;;;5033501;28;20068;-78
2021/07/14 00:24:40;;;;;;;19.48;15.07;;;691.90;1766.40;;;;;;5031702;28;20041;-79
2021/07/14 00:27:08;;;;;;;16.63;13.77;;;692.00;1766.40;;;;;;5033339;28;20025;-77
2021/07/14 00:29:37;;;;;;;19.33;14.88;;;692.00;1766.40;;;;;;5032067;28;20052;-77
2021/07/14 00:32:04;;;;;;;17.58;14.00;;;691.90;1766.40;;;;;;5032216;28;20466;-76
2021/07/14 00:34:31;;;;;;;23.50;14.40;;;691.90;1792.00;;;;;;5036398;28;20028;-80
2021/07/14 00:36:56;;;;;;;20.15;15.45;;;691.90;1792.00;;;;;;5052363;28;20477;-78
2021/07/14 00:39:22;;;;;;;17.92;14.13;;;691.90;1792.00;;;;;;5035174;28;20053;-78
2021/07/14 00:41:48;;;;;;;16.10;13.10;;;691.80;1792.00;;;;;;5035875;28;20484;-78
2021/07/14 00:44:14;;;;;;;17.83;13.40;;;691.70;1792.00;;;;;;5036451;28;20027;-76
2021/07/14 00:46:41;;;;;;;17.50;13.98;;;691.60;1792.00;;;;;;5036698;28;20022;-79
2021/07/14 00:49:10;;;;;;;17.45;13.52;;;691.60;1792.00;;;;;;5035525;28;20030;-78
2021/07/14 00:51:36;;;;;;;14.88;13.38;;;691.60;1792.00;;;;;;5051841;28;20477;-78
2021/07/14 00:54:02;;;;;;;18.48;14.60;;;691.60;1817.60;;;;;;5035222;28;20030;-78
2021/07/14 00:56:28;;;;;;;15.95;14.32;;;691.50;1817.60;;;;;;5035511;28;20033;-76
2021/07/14 00:58:56;;;;;;;16.13;14.52;;;691.50;1843.20;;;;;;5035108;28;20084;-80
2021/07/14 01:01:23;;;;;;;19.48;14.88;;;691.40;1843.20;;;;;;5037817;28;20022;-76
2021/07/14 01:04:01;;;;;;;16.70;15.00;;;691.40;1843.20;;;;;;5039195;28;20022;-77
2021/07/14 01:06:46;;;;;;;20.42;15.82;;;691.40;1843.20;;;;;;5039481;28;20040;-78
2021/07/14 01:09:15;;;;;;;19.50;14.60;;;691.40;1843.20;;;;;;5036840;28;20022;-77
2021/07/14 01:11:42;;;;;;;17.15;14.48;;;691.30;1843.20;;;;;;5036458;28;20489;-77
2021/07/14 01:14:22;;;;;;;17.75;14.85;;;691.30;1868.80;;;;;;5034979;28;20064;-78
2021/07/14 01:17:06;;;;;;;17.10;13.80;;;691.30;1868.80;;;;;;5051352;28;20034;-79
2021/07/14 01:19:44;;;;;;;16.10;14.35;;;691.30;1868.80;;;;;;5034642;28;20056;-78
2021/07/14 01:22:33;;;;;;;16.67;14.93;;;691.30;1868.80;;;;;;5036092;28;20446;-77
2021/07/14 01:25:07;;;;;;;18.85;14.52;;;691.30;1868.80;;;;;;5034843;28;20049;-77
2021/07/14 01:27:36;;;;;;;20.60;14.48;;;691.20;1868.80;;;;;;5035968;28;20092;-78
2021/07/14 01:30:07;;;;;;;17.83;13.45;;;691.20;1868.80;;;;;;5034741;28;20047;-80
2021/07/14 01:32:35;;;;;;;16.13;13.98;;;666.50;1868.80;;;;;;5035985;28;20029;-77
2021/07/14 01:35:17;;;;;;;17.25;11.88;;;666.50;1868.80;;;;;;5035779;28;20046;-78
2021/07/14 01:37:45;;;;;;;16.00;11.38;;;666.40;1843.20;;;;;;5035555;28;20041;-78
2021/07/14 01:40:12;;;;;;;13.60;11.10;;;666.30;1817.60;;;;;;5035560;28;20049;-77
2021/07/14 01:42:40;;;;;;;14.85;11.32;;;666.10;1817.60;;;;;;5034357;28;20032;-77
2021/07/14 01:45:07;;;;;;;13.38;11.98;;;666.10;1843.20;;;;;;5032809;28;20030;-76
2021/07/14 01:47:37;;;;;;;15.07;13.48;;;666.10;1843.20;;;;;;5034248;28;20136;-77
2021/07/14 01:50:05;;;;;;;18.33;13.98;;;666.10;1868.80;;;;;;5035589;28;20128;-78
2021/07/14 01:52:31;;;;;;;17.17;14.98;;;666.10;1894.40;;;;;;5050585;28;20504;-77
2021/07/14 01:55:01;;;;;;;18.45;15.15;;;666.00;1945.60;;;;;;5033877;28;20478;-77
2021/07/14 01:57:30;;;;;;;17.27;13.68;;;666.00;1945.60;;;;;;5050937;28;20033;-77
2021/07/14 01:59:56;;;;;;;19.80;14.88;;;666.00;1945.60;;;;;;5051459;28;20043;-78
2021/07/14 02:02:26;;;;;;;17.75;13.90;;;666.00;1945.60;;;;;;5034429;28;20031;-80
2021/07/14 02:04:53;;;;;;;19.38;15.35;;;666.00;1945.60;;;;;;5035308;28;20017;-76
2021/07/14 02:07:25;;;;;;;19.00;15.40;;;666.00;1945.60;;;;;;5034987;28;20033;-77
2021/07/14 02:09:53;;;;;;;18.03;15.47;;;666.00;1945.60;;;;;;5034019;28;20033;-77
2021/07/14 02:12:25;;;;;;;18.00;15.25;;;666.00;1945.60;;;;;;5035284;28;20273;-79
2021/07/14 02:15:11;;;;;;;16.90;14.37;;;666.00;1945.60;;;;;;5035284;28;20025;-77
2021/07/14 02:17:43;;;;;;;18.80;15.10;;;666.00;1945.60;;;;;;5035035;28;20793;-77
2021/07/14 02:20:17;;;;;;;16.50;14.77;;;665.90;1971.20;;;;;;5034989;28;20478;-77
2021/07/14 02:22:43;;;;;;;16.48;14.15;;;665.80;1996.80;;;;;;5034897;28;20063;-77
2021/07/14 02:25:10;;;;;;;16.83;14.07;;;665.80;1996.80;;;;;;5033380;28;20533;-77
2021/07/14 02:27:37;;;;;;;15.25;12.93;;;665.70;1971.20;;;;;;5050286;28;20079;-78
2021/07/14 02:30:19;;;;;;;19.75;15.98;;;665.70;1971.20;;;;;;5049510;28;20037;-77
2021/07/14 02:32:47;;;;;;;19.90;16.10;;;665.70;1996.80;;;;;;5034682;28;20349;-76
2021/07/14 02:35:13;;;;;;;16.55;13.88;;;665.70;1996.80;;;;;;5033476;28;20363;-78
2021/07/14 02:37:49;;;;;;;17.83;14.60;;;665.70;1996.80;;;;;;5034569;28;20465;-77
2021/07/14 02:40:23;;;;;;;16.60;14.40;;;665.70;1996.80;;;;;;5034397;28;20021;-76
2021/07/14 02:42:51;;;;;;;19.13;15.48;;;665.60;1996.80;;;;;;5034620;28;20060;-77
2021/07/14 02:45:17;;;;;;;17.42;13.88;;;665.60;1996.80;;;;;;5034524;28;20029;-77
2021/07/14 02:47:43;;;;;;;19.60;13.35;;;665.60;1996.80;;;;;;5034673;28;20032;-78
2021/07/14 02:50:20;;;;;;;17.60;14.15;;;640.90;1971.20;;;;;;5033228;28;20584;-78
2021/07/14 02:52:49;;;;;;;18.13;16.08;;;640.90;1971.20;;;;;;5049765;28;20037;-78
2021/07/14 02:55:19;;;;;;;15.98;14.38;;;640.90;1996.80;;;;;;5034189;28;20499;-77
2021/07/14 02:57:51;;;;;;;16.15;14.55;;;640.90;1996.80;;;;;;5034013;28;20029;-77
2021/07/14 03:00:17;;;;;;;21.10;13.68;;;640.80;1996.80;;;;;;5043618;28;20049;-77
2021/07/14 03:02:47;;;;;;;16.38;14.30;;;640.60;1996.80;;;;;;5052363;28;20032;-77
2021/07/14 03:05:14;;;;;;;16.67;14.15;;;640.50;2048.00;;;;;;5053539;28;20049;-77
2021/07/14 03:07:43;;;;;;;18.10;14.18;;;640.40;2073.60;;;;;;5048275;28;20070;-77
2021/07/14 03:10:11;;;;;;;31.17;15.13;;;640.10;2099.20;;;;;;5050099;28;20018;-75
2021/07/14 03:12:38;;;;;;;16.85;14.30;;;640.10;2099.20;;;;;;5050159;28;20026;-75
2021/07/14 03:15:13;;;;;;;21.58;15.75;;;640.00;2124.80;;;;;;5063286;28;20099;-77
2021/07/14 03:17:40;;;;;;;16.23;14.52;;;640.00;2124.80;;;;;;5033234;28;20581;-76
2021/07/14 03:20:13;;;;;;;16.75;14.07;;;615.30;2124.80;;;;;;5032971;28;20056;-77
2021/07/14 03:22:43;;;;;;;22.52;15.10;;;615.20;2150.40;;;;;;5034028;28;20021;-78
2021/07/14 03:25:11;;;;;;;18.58;14.55;;;615.30;2150.40;;;;;;5033227;28;20509;-77
2021/07/14 03:27:40;;;;;;;17.20;13.70;;;615.30;2124.80;;;;;;5034230;28;20022;-78
2021/07/14 03:30:06;;;;;;;19.48;13.98;;;615.30;2124.80;;;;;;5033035;28;20029;-77
2021/07/14 03:32:32;;;;;;;18.33;14.32;;;615.30;2124.80;;;;;;5034601;28;20061;-77
2021/07/14 03:34:57;;;;;;;17.75;14.77;;;615.30;2124.80;;;;;;5033408;28;20087;-78
2021/07/14 03:37:24;;;;;;;18.75;14.50;;;640.00;2099.20;;;;;;5032157;28;20045;-77
2021/07/14 03:39:51;;;;;;;20.33;14.60;;;615.30;2099.20;;;;;;5050180;28;20025;-77
2021/07/14 03:42:18;;;;;;;16.65;13.65;;;640.00;2099.20;;;;;;5034862;28;20095;-78
2021/07/14 03:44:49;;;;;;;17.55;14.32;;;640.00;2099.20;;;;;;5032997;28;20052;-78
2021/07/14 03:47:16;;;;;;;18.52;13.90;;;640.00;2099.20;;;;;;5034844;28;20109;-76
2021/07/14 03:49:45;;;;;;;15.85;14.20;;;640.00;2099.20;;;;;;5034193;28;20049;-77
2021/07/14 03:52:13;;;;;;;15.55;13.93;;;640.00;2073.60;;;;;;5034556;28;20030;-77
2021/07/14 03:54:40;;;;;;;18.95;13.98;;;640.10;2073.60;;;;;;5032975;28;20028;-78
2021/07/14 03:57:09;;;;;;;18.38;15.77;;;640.10;2048.00;;;;;;5049027;28;20075;-77
2021/07/14 03:59:39;;;;;;;20.85;16.98;;;640.10;2073.60;;;;;;5049112;28;20030;-76
2021/07/14 04:02:13;;;;;;;19.58;17.42;;;640.10;2099.20;;;;;;5032327;28;20028;-76
2021/07/14 04:04:40;;;;;;;27.63;17.60;;;640.20;2099.20;;;;;;5031760;28;20120;-77
2021/07/14 04:07:13;;;;;;;20.67;16.63;;;640.20;2099.20;;;;;;5033873;28;20052;-77
2021/07/14 04:09:42;;;;;;;;;;;640.10;2124.80;;;;;;5037924;28;20018;-78
2021/07/14 04:12:08;;;;;;;18.55;14.73;;;640.10;2124.80;;;;;;5036396;28;19906;-77
2021/07/14 04:14:33;;;;;;;20.50;15.40;;;640.10;2124.80;;;;;;5036491;28;20083;-77
2021/07/14 04:16:59;;;;;;;20.95;14.45;;;640.10;2124.80;;;;;;5036375;28;20116;-78
2021/07/14 04:19:26;;;;;;;24.00;14.27;;;640.10;2124.80;;;;;;5037423;28;20104;-75
2021/07/14 04:21:51;;;;;;;16.83;13.73;;;640.20;2124.80;;;;;;5036186;28;20030;-78
2021/07/14 04:24:18;;;;;;;22.13;14.15;;;640.30;2124.80;;;;;;5036845;28;20465;-77
2021/07/14 04:26:46;;;;;;;20.10;14.82;;;640.30;2124.80;;;;;;5052889;28;20116;-78
2021/07/14 04:29:13;;;;;;;19.50;15.23;;;640.30;2099.20;;;;;;5035862;28;20390;-76
2021/07/14 04:31:40;;;;;;;20.35;14.95;;;640.40;2099.20;;;;;;5037481;28;20029;-78
2021/07/14 04:34:06;;;;;;;19.25;15.68;;;640.40;2099.20;;;;;;5037236;28;20485;-78
2021/07/14 04:36:36;;;;;;;20.10;16.02;;;640.40;2099.20;;;;;;5037144;28;20037;-76
2021/07/14 04:39:07;;;;;;;19.67;15.82;;;640.50;2099.20;;;;;;5036899;28;20108;-79
2021/07/14 04:41:34;;;;;;;18.13;15.65;;;640.40;2099.20;;;;;;5037284;28;20056;-76
2021/07/14 04:44:03;;;;;;;18.05;15.55;;;640.20;2099.20;;;;;;5036488;28;20057;-77
2021/07/14 04:46:30;;;;;;;21.63;15.07;;;640.50;2099.20;;;;;;5035946;28;20113;-77
2021/07/14 04:48:56;;;;;;;21.00;16.45;;;640.60;2099.20;;;;;;5036832;28;20551;-77
2021/07/14 04:51:22;;;;;;;20.90;17.05;;;640.50;2099.20;;;;;;5035668;28;20022;-76
2021/07/14 04:53:47;;;;;;;21.77;16.17;;;640.50;2099.20;;;;;;5036574;28;20021;-78
2021/07/14 04:56:16;;;;;;;23.65;16.23;;;640.50;2099.20;;;;;;5035259;28;20034;-76
2021/07/14 04:58:46;;;;;;;19.05;13.57;;;640.60;2099.20;;;;;;5034731;28;20159;-77
2021/07/14 05:01:13;;;;;;;22.65;14.95;;;640.60;2099.20;;;;;;5034455;28;20029;-76
2021/07/14 05:03:40;;;;;;;18.52;14.38;;;640.70;2099.20;;;;;;5035287;28;20017;-77
2021/07/14 05:06:06;;;;;;;18.50;14.23;;;640.70;2099.20;;;;;;5036242;28;20063;-77
2021/07/14 05:08:32;;;;;;;17.52;13.25;;;640.70;2099.20;;;;;;5051545;28;20069;-77
2021/07/14 05:10:57;;;;;;;24.00;13.38;;;640.70;2099.20;;;;;;5035265;28;20547;-76
2021/07/14 05:13:23;;;;;;;18.25;13.90;;;640.80;2099.20;;;;;;5036442;28;20037;-80
2021/07/14 05:15:49;;;;;;;19.95;15.35;;;640.90;2099.20;;;;;;5036504;28;20026;-81
2021/07/14 05:18:15;;;;;;;18.75;14.25;;;640.90;2099.20;;;;;;5036115;28;20517;-77
2021/07/14 05:20:41;;;;;;;19.52;13.30;;;640.90;2099.20;;;;;;5036005;28;20029;-77
2021/07/14 05:23:08;;;;;;;16.05;13.18;;;640.90;2099.20;;;;;;5034678;28;20021;-77
2021/07/14 05:25:35;;;;;;;17.25;14.93;;;640.90;2099.20;;;;;;5034144;28;20048;-78
2021/07/14 05:28:01;;;;;;;18.17;15.10;;;665.60;2124.80;;;;;;5038432;28;20025;-76
2021/07/14 05:30:27;;;;;;;17.23;12.50;;;665.70;2124.80;;;;;;5034640;28;20021;-78
2021/07/14 05:32:53;;;;;;;21.17;14.88;;;665.70;2150.40;;;;;;5035954;28;20052;-79
2021/07/14 05:35:19;;;;;;;18.58;13.93;;;665.70;2124.80;;;;;;5035696;28;20045;-77
2021/07/14 05:37:45;;;;;;;20.58;13.65;;;665.70;2099.20;;;;;;5035709;28;20033;-79
2021/07/14 05:40:11;;;;;;;17.20;14.23;;;665.80;2099.20;;;;;;5034372;28;20021;-76
2021/07/14 05:42:37;;;;;;;16.20;12.90;;;666.00;2099.20;;;;;;5035702;28;20384;-76
2021/07/14 05:45:04;;;;;;;15.98;14.00;;;666.10;2073.60;;;;;;5034556;28;20084;-78
2021/07/14 05:47:30;;;;;;;18.95;15.13;;;666.20;2048.00;;;;;;5035844;28;20057;-77
2021/07/14 05:49:56;;;;;;;21.70;17.08;;;666.30;2048.00;;;;;;5034432;28;20137;-78
2021/07/14 05:52:21;;;;;;;19.73;14.20;;;666.40;2022.40;;;;;;5034248;28;20033;-77
2021/07/14 05:54:47;;;;;;;20.38;13.05;;;666.50;1996.80;;;;;;5035345;28;20033;-78
2021/07/14 05:57:13;;;;;;;15.27;12.23;;;666.50;1971.20;;;;;;5035146;28;20069;-78
2021/07/14 05:59:39;;;;;;;20.20;15.02;;;666.50;1996.80;;;;;;5035411;28;20067;-78
2021/07/14 06:02:05;;;;;;;19.83;12.90;;;691.20;1971.20;;;;;;5035333;28;20046;-77
2021/07/14 06:04:30;;;;;;;23.40;15.30;;;691.30;1945.60;;;;;;5034262;28;20026;-78
2021/07/14 06:06:56;;;;;;;16.02;13.68;;;691.50;1945.60;;;;;;5033325;28;20038;-78
2021/07/14 06:09:22;;;;;;;21.77;14.80;;;691.60;1945.60;;;;;;5035664;28;20491;-78
2021/07/14 06:11:49;;;;;;;17.05;14.68;;;691.70;1920.00;;;;;;5033932;28;20029;-79
2021/07/14 06:14:14;;;;;;;17.92;14.23;;;691.70;1894.40;;;;;;5033827;28;20140;-78
2021/07/14 06:16:40;;;;;;;17.60;13.48;;;691.80;1894.40;;;;;;5034977;28;20112;-79
2021/07/14 06:19:06;;;;;;;13.77;12.35;;;691.90;1868.80;;;;;;5033582;28;20429;-78
2021/07/14 06:21:31;;;;;;;16.98;13.77;;;691.90;1843.20;;;;;;5034730;28;20033;-77
2021/07/14 06:23:57;;;;;;;19.08;15.00;;;692.00;1868.80;;;;;;5033538;28;20083;-79
2021/07/14 06:26:23;;;;;;;17.77;14.05;;;692.10;1868.80;;;;;;5032785;28;20107;-76
2021/07/14 06:28:49;;;;;;;18.58;13.95;;;692.10;1843.20;;;;;;5033579;28;20071;-77
2021/07/14 06:31:15;;;;;;;21.55;13.85;;;716.80;1868.80;;;;;;5032684;28;20029;-77
2021/07/14 06:33:41;;;;;;;16.10;13.45;;;716.90;1843.20;;;;;;5033566;28;20028;-76
2021/07/14 06:36:07;;;;;;;17.95;14.07;;;717.00;1843.20;;;;;;5034697;28;20404;-76
2021/07/14 06:38:35;;;;;;;20.25;14.20;;;717.20;1843.20;;;;;;5033421;28;20120;-80
2021/07/14 06:41:01;;;;;;;16.73;13.60;;;717.30;1843.20;;;;;;5016949;28;20116;-78
2021/07/14 06:43:42;;;;;;;17.55;12.48;;;717.40;1843.20;;;;;;5033393;28;20457;-75
2021/07/14 06:46:16;;;;;;;15.05;12.60;;;717.50;1792.00;;;;;;5034728;28;20100;-76
2021/07/14 06:48:43;;;;;;;13.82;12.50;;;717.60;1792.00;;;;;;5033177;28;20429;-76
2021/07/14 06:51:09;;;;;;;14.90;13.35;;;717.60;1740.80;;;;;;5033419;28;20021;-77
2021/07/14 06:53:36;;;;;;;16.17;13.70;;;717.70;1740.80;;;;;;5032897;28;20025;-77
2021/07/14 06:56:02;;;;;;;15.15;11.43;;;742.40;1715.20;;;;;;5034543;28;20091;-78
2021/07/14 06:58:28;;;;;;;15.10;11.20;;;742.60;1638.40;;;;;;5033479;28;20029;-78
2021/07/14 07:00:55;;;;;;;17.73;12.38;;;742.80;1638.40;;;;;;5034028;28;20025;-78
2021/07/14 07:03:22;;;;;;;13.70;11.40;;;742.80;1612.80;;;;;;5033420;28;20028;-77
2021/07/14 07:05:48;;;;;;;16.63;13.13;;;742.90;1638.40;;;;;;5033629;28;20051;-78
2021/07/14 07:08:14;;;;;;;22.63;12.30;;;742.90;1612.80;;;;;;5034693;28;20026;-76
2021/07/14 07:10:40;;;;;;;20.67;13.32;;;742.90;1638.40;;;;;;5049247;28;20026;-75
2021/07/14 07:13:10;;;;;;;16.05;11.25;;;743.00;1612.80;;;;;;5033772;28;20028;-78
2021/07/14 07:15:36;;;;;;;22.98;14.07;;;743.10;1587.20;;;;;;5033015;28;20030;-78
2021/07/14 07:18:02;;;;;;;18.17;11.43;;;743.10;1587.20;;;;;;5033856;28;20528;-79
2021/07/14 07:20:29;;;;;;;15.95;12.05;;;743.10;1587.20;;;;;;5032556;28;20058;-77
2021/07/14 07:22:55;;;;;;;20.38;12.43;;;743.20;1587.20;;;;;;5033657;28;20022;-77
2021/07/14 07:25:21;;;;;;;16.83;11.10;;;743.30;1587.20;;;;;;5033481;28;20050;-76
2021/07/14 07:27:47;;;;;;;15.73;12.88;;;768.00;1561.60;;;;;;5033627;28;20060;-77
2021/07/14 07:30:13;;;;;;;14.75;12.15;;;768.00;1510.40;;;;;;5032269;28;20021;-76
2021/07/14 07:32:39;;;;;;;15.07;12.00;;;768.10;1510.40;;;;;;5033790;28;20021;-76
2021/07/14 07:35:07;;;;;;;17.67;11.70;;;768.20;1536.00;;;;;;5033664;28;20029;-76
2021/07/14 07:37:33;;;;;;;15.88;12.45;;;768.40;1510.40;;;;;;5033305;28;20084;-76
2021/07/14 07:39:59;;;;;;;15.13;11.75;;;768.50;1510.40;;;;;;5033495;28;20416;-76
2021/07/14 07:42:25;;;;;;;17.63;12.75;;;768.70;1536.00;;;;;;5032090;28;20112;-77
2021/07/14 07:44:51;;;;;;;18.23;12.38;;;768.80;1536.00;;;;;;5032076;28;20474;-77
2021/07/14 07:47:17;;;;;;;18.40;12.57;;;793.70;1484.80;;;;;;5032089;28;20056;-76
2021/07/14 07:49:46;;;;;;;17.92;12.18;;;793.70;1510.40;;;;;;5033644;28;20056;-77
2021/07/14 07:52:18;;;;;;;14.02;12.25;;;793.70;1459.20;;;;;;5032392;28;20121;-76
2021/07/14 07:54:44;;;;;;;13.38;11.50;;;793.90;1459.20;;;;;;5033342;28;20021;-78
2021/07/14 07:57:10;;;;;;;14.85;11.55;;;794.10;1459.20;;;;;;5031892;28;20042;-76
2021/07/14 07:59:36;;;;;;;13.35;10.68;;;794.20;1433.60;;;;;;5032056;28;20043;-78
2021/07/14 08:02:03;;;;;;;17.50;12.20;;;794.20;1459.20;;;;;;5031520;28;20037;-78
2021/07/14 08:04:29;;;;;;;15.90;12.55;;;794.40;1484.80;;;;;;5033415;28;20100;-77
2021/07/14 08:06:55;;;;;;;15.52;12.45;;;794.50;1459.20;;;;;;5033174;28;20060;-77
2021/07/14 08:09:21;;;;;;;21.05;13.75;;;819.30;1484.80;;;;;;5031932;28;20033;-76
2021/07/14 08:11:47;;;;;;;15.52;12.85;;;819.30;1459.20;;;;;;5033384;28;20022;-76
2021/07/14 08:14:16;;;;;;;15.18;13.15;;;819.30;1459.20;;;;;;5033410;28;20025;-77
2021/07/14 08:16:42;;;;;;;15.18;10.90;;;819.60;1459.20;;;;;;5033046;28;20037;-77
2021/07/14 08:19:08;;;;;;;13.93;12.45;;;819.60;1408.00;;;;;;5033130;28;20440;-76
2021/07/14 08:21:34;;;;;;;15.70;13.50;;;819.50;1408.00;;;;;;5032991;28;20025;-77
2021/07/14 08:24:00;;;;;;;17.00;12.90;;;819.60;1459.20;;;;;;5032834;28;20350;-77
2021/07/14 08:26:26;;;;;;;14.90;13.02;;;819.80;1433.60;;;;;;5032784;28;20513;-77
2021/07/14 08:28:52;;;;;;;14.95;13.40;;;819.90;1408.00;;;;;;5031617;28;20029;-77
2021/07/14 08:31:18;;;;;;;18.42;11.93;;;820.00;1459.20;;;;;;5032996;28;20385;-77
2021/07/14 08:33:44;;;;;;;14.43;12.43;;;820.10;1433.60;;;;;;5048382;28;20132;-76
2021/07/14 08:36:10;;;;;;;14.88;11.70;;;844.90;1459.20;;;;;;5031601;28;20029;-78
2021/07/14 08:38:36;;;;;;;17.42;12.88;;;845.00;1484.80;;;;;;5033031;28;20038;-77
2021/07/14 08:41:03;;;;;;;19.88;12.32;;;845.20;1484.80;;;;;;5032791;28;20100;-76
2021/07/14 08:43:33;;;;;;;16.00;12.80;;;845.20;1433.60;;;;;;5032898;28;20533;-76
2021/07/14 08:46:00;;;;;;;17.80;11.35;;;845.40;1408.00;;;;;;5032944;28;20393;-77
2021/07/14 08:48:26;;;;;;;13.85;11.38;;;845.40;1408.00;;;;;;5033099;28;20496;-79
2021/07/14 08:50:57;;;;;;;18.40;13.00;;;845.60;1331.20;;;;;;5032927;28;20030;-77
2021/07/14 08:53:24;;;;;;;14.25;11.55;;;845.60;1331.20;;;;;;5032886;28;20032;-81
2021/07/14 08:55:50;;;;;;;15.82;13.43;;;845.60;1356.80;;;;;;5036324;28;20025;-76
2021/07/14 08:58:20;;;;;;;16.23;12.02;;;845.70;1331.20;;;;;;5036003;28;20413;-79
2021/07/14 09:00:48;;;;;;;14.40;11.40;;;845.70;1331.20;;;;;;5034245;28;20057;-77
2021/07/14 09:03:14;;;;;;;14.88;10.05;;;845.70;1356.80;;;;;;5036216;28;20539;-77
2021/07/14 09:05:40;;;;;;;18.48;12.13;;;870.40;1356.80;;;;;;5035893;28;20035;-77
2021/07/14 09:08:06;;;;;;;13.00;11.63;;;870.50;1305.60;;;;;;5035887;28;20104;-76
2021/07/14 09:10:32;;;;;;;16.38;12.45;;;870.50;1408.00;;;;;;5035435;28;20493;-77
2021/07/14 09:12:59;;;;;;;13.85;10.90;;;870.80;1356.80;;;;;;5035913;28;20064;-78
2021/07/14 09:15:27;;;;;;;14.88;10.63;;;870.80;1305.60;;;;;;5036029;28;20466;-77
2021/07/14 09:17:58;;;;;;;12.55;11.27;;;871.00;1305.60;;;;;;5035911;28;20040;-79
2021/07/14 09:20:32;;;;;;;15.88;10.88;;;871.10;1305.60;;;;;;5036775;28;20395;-77
2021/07/14 09:23:18;;;;;;;15.02;10.32;;;871.20;1280.00;;;;;;5035799;28;20100;-78
2021/07/14 09:25:53;;;;;;;17.38;12.05;;;871.20;1254.40;;;;;;5035682;28;20037;-79
2021/07/14 09:28:21;;;;;;;15.20;10.98;;;871.30;1280.00;;;;;;5035776;28;20032;-81
2021/07/14 09:30:55;;;;;;;13.25;10.57;;;871.30;1280.00;;;;;;5035816;28;20018;-78
2021/07/14 09:33:21;;;;;;;13.43;10.20;;;896.00;1280.00;;;;;;5036010;28;20022;-77
2021/07/14 09:35:49;;;;;;;12.48;10.20;;;896.10;1331.20;;;;;;5035816;28;20113;-80
2021/07/14 09:38:20;;;;;;;12.35;10.68;;;896.20;1228.80;;;;;;5035666;28;20485;-77
2021/07/14 09:41:06;;;;;;;12.18;9.77;;;896.30;1203.20;;;;;;5035917;28;20355;-77
2021/07/14 09:43:35;;;;;;;9.95;8.75;;;896.30;1203.20;;;;;;5035583;28;20029;-80
2021/07/14 09:46:02;;;;;;;12.38;10.35;;;896.40;1280.00;;;;;;5035788;28;20021;-80
2021/07/14 09:48:32;;;;;;;13.18;9.48;;;896.60;1254.40;;;;;;5035574;28;20152;-80
2021/07/14 09:51:06;;;;;;;13.57;10.25;;;896.70;1203.20;;;;;;5035815;28;20028;-78
2021/07/14 09:53:34;;;;;;;10.20;8.93;;;921.60;1228.80;;;;;;5035938;28;20033;-81
2021/07/14 09:56:21;;;;;;;11.02;8.75;;;921.80;1228.80;;;;;;5035530;28;20027;-79
2021/07/14 09:58:47;;;;;;;11.88;8.70;;;921.90;1152.00;;;;;;5035481;28;20017;-78
2021/07/14 10:01:17;;;;;;;11.20;8.98;;;922.00;1177.60;;;;;;5035305;28;20045;-79
2021/07/14 10:03:52;;;;;;;15.80;9.43;;;922.00;1126.40;;;;;;5034846;28;20029;-77
2021/07/14 10:06:24;;;;;;;11.02;9.45;;;922.00;1126.40;;;;;;5033828;28;20050;-78
2021/07/14 10:08:50;;;;;;;13.75;9.60;;;922.00;1126.40;;;;;;5035177;28;20025;-78
2021/07/14 10:11:28;;;;;;;14.52;8.98;;;922.20;1126.40;;;;;;5034719;28;20025;-80
2021/07/14 10:13:56;;;;;;;13.30;9.65;;;922.30;1152.00;;;;;;5034983;28;20075;-77
2021/07/14 10:16:24;;;;;;;13.52;9.48;;;922.50;1126.40;;;;;;5034667;28;20582;-77
2021/07/14 10:19:01;;;;;;;14.65;9.65;;;947.20;1126.40;;;;;;5034926;28;20072;-81
2021/07/14 10:21:28;;;;;;;14.45;8.73;;;947.30;1100.80;;;;;;5034843;28;20029;-78
2021/07/14 10:23:54;;;;;;;13.05;8.13;;;947.40;1126.40;;;;;;5034662;28;20083;-76
2021/07/14 10:26:21;;;;;;;10.80;8.30;;;947.40;1100.80;;;;;;5034307;28;20128;-79
2021/07/14 10:28:53;;;;;;;14.73;9.13;;;947.50;1049.60;;;;;;5034754;28;20018;-78
2021/07/14 10:31:21;;;;;;;12.57;8.30;;;947.50;1075.20;;;;;;5034163;28;20037;-78
2021/07/14 10:33:49;;;;;;;12.05;9.82;;;947.60;1075.20;;;;;;5034373;28;20104;-81
2021/07/14 10:36:19;;;;;;;11.60;8.88;;;947.70;1049.60;;;;;;5034514;28;20040;-79
2021/07/14 10:38:52;;;;;;;12.25;8.55;;;947.80;1049.60;;;;;;5034456;28;20494;-79
2021/07/14 10:41:19;;;;;;;11.98;9.10;;;947.80;1049.60;;;;;;5034384;28;20033;-78
2021/07/14 10:43:47;;;;;;;12.52;9.02;;;947.80;1049.60;;;;;;5034541;28;20025;-78
2021/07/14 10:46:23;;;;;;;14.23;8.68;;;948.00;1024.00;;;;;;5034683;28;20151;-80
2021/07/14 10:48:51;;;;;;;25.73;8.57;;;948.00;1024.00;;;;;;5034433;28;20021;-80
2021/07/14 10:51:17;;;;;;;9.90;7.57;;;947.80;1024.00;;;;;;5032943;28;20030;-77
2021/07/14 10:53:45;;;;;;;15.93;8.65;;;947.80;998.40;;;;;;5034628;28;20030;-76
2021/07/14 10:56:13;;;;;;;12.23;7.78;;;947.80;1024.00;;;;;;5034120;28;20108;-77
2021/07/14 10:58:41;;;;;;;10.05;8.38;;;947.90;998.40;;;;;;5034576;28;20107;-78
2021/07/14 11:01:07;;;;;;;15.40;8.93;;;948.00;998.40;;;;;;5034550;28;20029;-77
2021/07/14 11:03:33;;;;;;;11.20;8.15;;;948.10;998.40;;;;;;5034334;28;20013;-80
2021/07/14 11:06:09;;;;;;;11.65;7.88;;;948.10;1024.00;;;;;;5033739;28;20045;-77
2021/07/14 11:08:50;;;;;;;12.57;8.55;;;972.80;998.40;;;;;;5034467;28;20025;-79
2021/07/14 11:11:21;;;;;;;12.57;8.07;;;973.10;998.40;;;;;;5034050;28;20025;-79
2021/07/14 11:14:04;;;;;;;12.10;7.45;;;973.20;1024.00;;;;;;5032794;28;20025;-80
2021/07/14 11:16:32;;;;;;;9.07;8.13;;;973.20;1024.00;;;;;;5033754;28;20037;-77
2021/07/14 11:19:04;;;;;;;11.93;7.72;;;973.20;1024.00;;;;;;5033872;28;20022;-78
2021/07/14 11:21:56;;;;;;;10.95;7.75;;;973.20;998.40;;;;;;5033724;28;20060;-78
2021/07/14 11:24:41;;;;;;;10.95;8.18;;;973.30;921.60;;;;;;4992123;28;20622;-77
2021/07/14 11:27:27;;;;;;;11.98;9.13;;;973.50;947.20;;;;;;4992613;28;20042;-78
2021/07/14 11:29:55;;;;;;;9.77;8.38;;;973.50;972.80;;;;;;4992191;28;20074;-79
2021/07/14 11:32:37;;;;;;;12.48;8.52;;;973.40;972.80;;;;;;4992296;28;20562;-78
2021/07/14 11:35:24;;;;;;;10.25;7.88;;;973.60;947.20;;;;;;4991987;28;20050;-78
2021/07/14 11:37:50;;;;;;;11.93;8.10;;;973.50;947.20;;;;;;4992060;28;20031;-77
2021/07/14 11:40:19;;;;;;;13.82;9.40;;;973.50;947.20;;;;;;4992074;28;20436;-80
2021/07/14 11:42:50;;;;;;;11.70;7.97;;;973.50;972.80;;;;;;4973394;28;20399;-78
2021/07/14 11:45:21;;;;;;;14.87;8.87;;;973.50;947.20;;;;;;4992232;28;20048;-78
2021/07/14 11:47:59;;;;;;;12.95;8.05;;;998.40;1024.00;;;;;;4992413;28;20045;-80
2021/07/14 11:51:00;;;;;;;13.00;8.18;;;998.60;972.80;;;;;;4992006;28;20037;-79
2021/07/14 11:53:29;;;;;;;14.35;8.95;;;998.70;947.20;;;;;;4912796;29;20125;-77
2021/07/14 11:55:59;;;;;;;10.85;7.85;;;998.70;947.20;;;;;;4914839;29;20453;-78
2021/07/14 11:58:49;;;;;;;11.35;8.15;;;998.80;972.80;;;;;;4914945;29;20033;-81
2021/07/14 12:01:17;;;;;;;12.60;8.77;;;999.00;921.60;;;;;;4932946;29;20544;-76
2021/07/14 12:04:01;;;;;;;13.95;7.50;;;999.00;921.60;;;;;;4952923;29;20058;-77
2021/07/14 12:06:47;;;;;;;13.63;9.10;;;999.10;947.20;;;;;;4953036;29;20042;-77
2021/07/14 12:09:12;;;;;;;9.10;7.93;;;999.30;947.20;;;;;;4952747;29;20098;-76
2021/07/14 12:11:44;;;;;;;12.10;7.40;;;999.30;921.60;;;;;;4952822;29;20408;-78
2021/07/14 12:14:28;;;;;;;10.85;7.95;;;999.30;947.20;;;;;;4952978;29;20035;-78
2021/07/14 12:17:09;;;;;;;10.43;7.85;;;999.10;921.60;;;;;;4952397;29;20047;-78
2021/07/14 12:19:41;;;;;;;16.95;8.18;;;999.00;921.60;;;;;;4952858;29;20037;-81
2021/07/14 12:22:10;;;;;;;11.13;8.18;;;998.80;921.60;;;;;;4952945;29;20082;-77